Time;durP1;ratioP1;P1;durP2;ratioP2;P2;SDS_P1;SDS_P2;PMS_P1;PMS_P2;Temp;Humidity;BMP_temperature;BMP_pressure;BME280_temperature;BME280_humidity;BME280_pressure;Samples;Min_cycle;Max_cycle;Signal;HPM_P1;HPM_P2
2022/05/07 00:01:05;;;;;;;22.27;18.47;;;;;;;14.19;100.00;95554.72;4992829;28;20231;-57
2022/05/07 00:03:30;;;;;;;21.80;18.83;;;;;;;14.21;100.00;95546.84;4992710;28;20196;-57
2022/05/07 00:05:56;;;;;;;21.47;18.90;;;;;;;14.20;100.00;95550.78;4992481;28;20219;-57
2022/05/07 00:08:21;;;;;;;22.27;19.07;;;;;;;14.37;100.00;95543.41;5009431;28;20180;-57
2022/05/07 00:10:46;;;;;;;22.33;19.77;;;;;;;14.53;100.00;95547.00;4992708;28;20223;-52
2022/05/07 00:13:12;;;;;;;20.03;17.93;;;;;;;14.25;100.00;95542.09;4992424;28;20192;-59
2022/05/07 00:15:38;;;;;;;21.50;18.53;;;;;;;14.23;100.00;95544.47;4992789;28;20184;-60
2022/05/07 00:18:04;;;;;;;23.57;19.17;;;;;;;14.49;100.00;95534.56;4992731;28;20200;-59
2022/05/07 00:20:30;;;;;;;21.57;19.27;;;;;;;14.56;100.00;95546.16;4992556;28;20240;-60
2022/05/07 00:22:56;;;;;;;21.83;19.40;;;;;;;14.57;100.00;95544.19;4993474;28;20219;-59
2022/05/07 00:25:22;;;;;;;22.83;20.37;;;;;;;14.58;100.00;95540.22;4992215;28;20188;-60
2022/05/07 00:27:48;;;;;;;22.50;19.83;;;;;;;14.54;100.00;95534.03;4992505;28;20227;-57
2022/05/07 00:30:13;;;;;;;23.10;20.10;;;;;;;14.48;100.00;95539.25;4992369;28;20227;-60
2022/05/07 00:32:38;;;;;;;22.27;19.30;;;;;;;14.49;100.00;95540.81;4992333;28;20218;-51
2022/05/07 00:35:04;;;;;;;25.60;20.63;;;;;;;14.50;100.00;95530.59;4992105;28;20235;-45
2022/05/07 00:37:31;;;;;;;23.27;20.53;;;;;;;14.43;100.00;95542.53;4992266;28;20218;-49
2022/05/07 00:39:56;;;;;;;24.63;21.97;;;;;;;14.41;100.00;95538.63;4993517;28;20191;-51
2022/05/07 00:42:22;;;;;;;25.10;21.60;;;;;;;14.34;100.00;95534.06;4992037;28;20221;-48
2022/05/07 00:44:47;;;;;;;26.07;21.63;;;;;;;14.37;100.00;95532.41;4992302;28;20187;-47
2022/05/07 00:47:25;;;;;;;27.40;23.00;;;;;;;14.35;100.00;95526.59;4993128;28;20183;-57
2022/05/07 00:52:46;;;;;;;27.67;23.77;;;;;;;14.05;100.00;95521.25;4965105;28;20218;-62
2022/05/07 00:55:13;;;;;;;27.33;23.10;;;;;;;14.00;100.00;95514.31;4992408;28;20195;-61
2022/05/07 00:57:39;;;;;;;30.47;24.27;;;;;;;13.98;100.00;95513.19;4992317;28;20196;-61
2022/05/07 01:00:06;;;;;;;31.03;25.40;;;;;;;14.01;100.00;95512.31;4992084;28;20203;-61
2022/05/07 01:02:32;;;;;;;30.50;25.83;;;;;;;13.98;100.00;95505.72;4991698;28;20211;-61
2022/05/07 01:04:57;;;;;;;31.57;24.90;;;;;;;13.98;100.00;95505.72;4991943;28;20291;-53
2022/05/07 01:07:23;;;;;;;30.17;24.50;;;;;;;14.02;100.00;95500.91;4991759;28;20220;-50
2022/05/07 01:09:49;;;;;;;29.90;24.63;;;;;;;14.12;100.00;95502.69;4992491;28;20191;-58
2022/05/07 01:12:14;;;;;;;27.97;24.40;;;;;;;14.13;100.00;95495.22;4995131;28;20201;-58
2022/05/07 01:14:40;;;;;;;31.43;26.03;;;;;;;14.10;100.00;95491.38;4995276;28;20222;-57
2022/05/07 01:17:09;;;;;;;27.67;24.30;;;;;;;14.13;100.00;95496.00;4995223;28;20206;-58
2022/05/07 01:19:34;;;;;;;30.83;25.07;;;;;;;14.07;100.00;95492.22;4995594;28;20255;-58
2022/05/07 01:22:01;;;;;;;29.47;24.77;;;;;;;14.13;100.00;95490.50;4995260;28;20305;-58
2022/05/07 01:24:27;;;;;;;29.37;25.13;;;;;;;14.05;100.00;95491.84;4995341;28;20194;-47
2022/05/07 01:26:52;;;;;;;31.00;25.17;;;;;;;14.05;100.00;95486.34;4995231;28;20197;-58
2022/05/07 01:29:17;;;;;;;30.00;25.07;;;;;;;14.03;100.00;95486.00;4995127;28;20279;-58
2022/05/07 01:31:43;;;;;;;29.80;25.10;;;;;;;14.06;100.00;95484.38;4995446;28;20198;-58
2022/05/07 01:34:08;;;;;;;32.27;26.67;;;;;;;14.05;100.00;95480.84;4995069;28;20477;-57
2022/05/07 01:36:33;;;;;;;31.37;25.73;;;;;;;14.06;100.00;95489.88;4994880;28;20273;-58
2022/05/07 01:38:58;;;;;;;31.53;26.30;;;;;;;14.05;100.00;95472.63;4994766;28;20460;-61
2022/05/07 01:41:24;;;;;;;32.23;25.13;;;;;;;14.05;100.00;95478.09;4994544;28;20198;-59
2022/05/07 01:43:49;;;;;;;31.57;26.13;;;;;;;14.03;100.00;95480.53;4994907;28;20190;-61
2022/05/07 01:48:59;;;;;;;30.03;25.60;;;;;;;13.99;100.00;95484.53;4996240;28;20278;-58
2022/05/07 01:51:25;;;;;;;34.60;27.07;;;;;;;13.99;100.00;95479.78;4994944;28;20274;-58
2022/05/07 01:53:50;;;;;;;30.80;25.30;;;;;;;14.00;100.00;95478.63;4994789;28;20192;-57
2022/05/07 01:56:16;;;;;;;29.13;24.07;;;;;;;14.01;100.00;95477.41;4994958;28;20287;-59
2022/05/07 01:58:41;;;;;;;28.00;24.27;;;;;;;13.98;100.00;95478.25;4994831;28;20191;-57
2022/05/07 02:01:09;;;;;;;30.70;24.33;;;;;;;13.97;100.00;95476.72;4994544;28;20188;-46
2022/05/07 02:03:35;;;;;;;28.97;25.13;;;;;;;13.93;100.00;95484.25;4994371;28;20190;-57
2022/05/07 02:06:01;;;;;;;29.10;23.80;;;;;;;13.92;100.00;95487.41;4994585;28;20316;-57
2022/05/07 02:08:26;;;;;;;30.73;24.60;;;;;;;13.85;100.00;95480.09;4994703;28;20190;-57
2022/05/07 02:10:51;;;;;;;31.00;25.60;;;;;;;14.02;100.00;95478.94;4994308;28;20206;-57
2022/05/07 02:13:17;;;;;;;31.83;25.57;;;;;;;13.91;100.00;95481.13;4994009;28;20192;-57
2022/05/07 02:15:43;;;;;;;29.83;25.13;;;;;;;13.85;100.00;95474.59;4994461;28;20241;-58
2022/05/07 02:18:09;;;;;;;29.10;24.80;;;;;;;13.86;100.00;95467.91;4994726;28;20211;-67
2022/05/07 02:20:34;;;;;;;30.40;26.10;;;;;;;13.86;100.00;95469.88;4994609;28;20193;-58
2022/05/07 02:22:59;;;;;;;29.57;25.27;;;;;;;13.82;100.00;95469.94;4993581;28;20207;-49
2022/05/07 02:25:25;;;;;;;29.37;25.27;;;;;;;13.83;100.00;95473.44;4994093;28;20186;-46
2022/05/07 02:27:50;;;;;;;27.53;24.27;;;;;;;13.76;100.00;95471.63;4994278;28;20191;-47
2022/05/07 02:30:19;;;;;;;29.33;24.67;;;;;;;13.73;100.00;95472.47;4993847;28;20213;-44
2022/05/07 02:32:46;;;;;;;29.33;24.17;;;;;;;13.72;100.00;95468.19;4994197;28;20278;-47
2022/05/07 02:35:11;;;;;;;32.20;24.77;;;;;;;13.73;100.00;95468.97;4994003;28;20400;-45
2022/05/07 02:37:36;;;;;;;28.73;24.77;;;;;;;13.71;100.00;95469.38;4993877;28;20266;-58
2022/05/07 02:40:02;;;;;;;29.90;24.70;;;;;;;13.73;100.00;95472.47;4993873;28;20186;-58
2022/05/07 02:42:33;;;;;;;26.00;23.20;;;;;;;13.71;100.00;95468.59;4993614;28;20215;-58
2022/05/07 02:44:59;;;;;;;29.40;23.97;;;;;;;13.71;100.00;95472.13;4994156;28;20221;-58
2022/05/07 02:47:24;;;;;;;31.03;25.40;;;;;;;13.70;100.00;95462.34;4994100;28;20274;-58
2022/05/07 02:49:50;;;;;;;29.40;24.47;;;;;;;13.63;100.00;95467.97;4994463;28;20271;-58
2022/05/07 02:52:15;;;;;;;32.47;24.93;;;;;;;13.65;100.00;95462.81;4994000;28;20190;-59
2022/05/07 02:54:40;;;;;;;29.83;26.30;;;;;;;13.59;100.00;95467.25;4994043;28;20519;-58
2022/05/07 02:57:06;;;;;;;33.83;28.97;;;;;;;13.58;100.00;95460.22;4993894;28;20186;-50
2022/05/07 02:59:31;;;;;;;38.53;30.13;;;;;;;13.57;100.00;95461.41;4993800;28;20206;-46
2022/05/07 03:01:57;;;;;;;31.87;28.13;;;;;;;13.56;100.00;95451.63;4993482;28;20270;-50
2022/05/07 03:04:22;;;;;;;33.67;27.40;;;;;;;13.59;100.00;95456.28;4993576;28;20246;-47
2022/05/07 03:06:48;;;;;;;34.87;28.17;;;;;;;13.64;100.00;95452.25;4993372;28;20220;-49
2022/05/07 03:09:14;;;;;;;32.33;26.67;;;;;;;13.66;100.00;95456.13;4993208;28;20191;-47
2022/05/07 03:11:39;;;;;;;30.17;25.90;;;;;;;13.71;100.00;95457.63;4993506;28;20192;-47
2022/05/07 03:14:06;;;;;;;30.90;25.80;;;;;;;13.69;100.00;95455.28;4993575;28;20198;-58
2022/05/07 03:16:34;;;;;;;32.30;26.60;;;;;;;13.72;100.00;95453.66;4993602;28;20210;-66
2022/05/07 03:18:59;;;;;;;32.07;26.33;;;;;;;13.75;100.00;95453.63;4994771;28;20202;-66
2022/05/07 03:21:24;;;;;;;30.77;26.83;;;;;;;13.78;100.00;95447.28;4993770;28;20198;-66
2022/05/07 03:23:50;;;;;;;32.57;26.70;;;;;;;13.77;100.00;95453.94;4993567;28;20191;-67
2022/05/07 03:26:17;;;;;;;32.00;26.17;;;;;;;13.73;100.00;95449.75;4994382;28;20266;-66
2022/05/07 03:28:42;;;;;;;33.53;26.90;;;;;;;13.75;100.00;95459.09;4993205;28;20191;-67
2022/05/07 03:31:07;;;;;;;32.07;26.27;;;;;;;13.76;100.00;95455.16;4993301;28;20183;-67
2022/05/07 03:33:33;;;;;;;31.73;26.57;;;;;;;13.71;100.00;95452.13;4992851;28;20230;-63
2022/05/07 03:35:59;;;;;;;37.07;29.87;;;;;;;13.72;100.00;95448.19;4993310;28;20179;-66
2022/05/07 03:38:24;;;;;;;32.03;25.93;;;;;;;13.69;100.00;95449.81;4992994;28;20221;-68
2022/05/07 03:40:50;;;;;;;30.90;25.63;;;;;;;13.66;100.00;95450.63;4992993;28;20190;-67
2022/05/07 03:43:15;;;;;;;34.37;26.67;;;;;;;13.64;100.00;95447.56;4993007;28;20223;-66
2022/05/07 03:45:42;;;;;;;31.93;25.30;;;;;;;13.60;100.00;95446.84;4993093;28;20194;-66
2022/05/07 03:48:09;;;;;;;31.97;26.37;;;;;;;13.50;100.00;95447.81;4993041;28;20364;-67
2022/05/07 03:50:34;;;;;;;31.60;26.07;;;;;;;13.45;100.00;95448.31;4993158;28;20190;-66
2022/05/07 03:55:44;;;;;;;31.37;26.87;;;;;;;13.41;100.00;95444.88;4994103;28;20226;-65
2022/05/07 03:58:17;;;;;;;33.10;26.60;;;;;;;13.43;100.00;95439.72;4992626;28;20204;-64
2022/05/07 04:00:43;;;;;;;32.93;26.93;;;;;;;13.42;100.00;95440.91;4992554;28;20190;-64
2022/05/07 04:03:10;;;;;;;33.50;26.80;;;;;;;13.39;100.00;95430.78;4992643;28;20282;-64
2022/05/07 04:05:35;;;;;;;33.17;26.10;;;;;;;13.41;100.00;95425.66;4993690;28;20183;-63
2022/05/07 04:08:01;;;;;;;32.63;27.03;;;;;;;13.36;100.00;95426.13;4992499;28;20225;-62
2022/05/07 04:10:26;;;;;;;30.77;25.87;;;;;;;13.36;100.00;95431.63;4992719;28;20245;-48
2022/05/07 04:12:51;;;;;;;32.40;27.13;;;;;;;13.34;100.00;95420.31;4992802;28;20274;-59
2022/05/07 04:15:17;;;;;;;32.73;27.03;;;;;;;13.30;100.00;95416.84;4992529;28;20191;-60
2022/05/07 04:17:43;;;;;;;32.73;26.07;;;;;;;13.27;100.00;95417.69;4992347;28;20211;-60
2022/05/07 04:20:09;;;;;;;34.77;28.07;;;;;;;13.29;100.00;95416.06;4992571;28;20197;-60
2022/05/07 04:22:35;;;;;;;32.37;27.20;;;;;;;13.24;100.00;95407.56;4992471;28;20203;-60
2022/05/07 04:25:01;;;;;;;29.57;25.00;;;;;;;13.22;100.00;95401.69;4992411;28;20282;-61
2022/05/07 04:27:27;;;;;;;34.67;26.97;;;;;;;13.29;100.00;95409.81;4992538;28;20185;-50
2022/05/07 04:29:52;;;;;;;34.97;27.73;;;;;;;13.31;100.00;95399.19;4992506;28;20183;-60
2022/05/07 04:32:17;;;;;;;34.43;27.30;;;;;;;13.36;100.00;95397.94;4992285;28;20198;-60
2022/05/07 04:34:43;;;;;;;32.43;26.37;;;;;;;13.39;100.00;95392.38;4992251;28;20191;-60
2022/05/07 04:37:08;;;;;;;36.07;26.77;;;;;;;13.43;100.00;95387.59;4992113;28;20200;-60
2022/05/07 04:39:34;;;;;;;34.63;26.33;;;;;;;13.40;100.00;95390.41;4992083;28;20278;-60
2022/05/07 04:42:00;;;;;;;33.40;25.47;;;;;;;13.50;100.00;95392.94;4992300;28;20213;-60
2022/05/07 04:44:26;;;;;;;32.13;25.87;;;;;;;13.40;100.00;95393.16;4991645;28;20201;-60
2022/05/07 04:46:51;;;;;;;29.63;23.93;;;;;;;13.29;100.00;95383.16;4993192;28;20187;-65
2022/05/07 04:49:19;;;;;;;32.10;24.83;;;;;;;13.32;100.00;95376.06;4992129;28;20294;-52
2022/05/07 04:51:45;;;;;;;28.77;24.27;;;;;;;13.28;100.00;95375.34;4992081;28;20194;-53
2022/05/07 04:54:10;;;;;;;29.07;24.70;;;;;;;13.43;100.00;95376.63;4992222;28;20192;-52
2022/05/07 04:56:36;;;;;;;28.37;23.30;;;;;;;13.40;100.00;95366.47;4992252;28;20210;-50
2022/05/07 04:59:01;;;;;;;27.40;24.00;;;;;;;13.35;100.00;95375.22;4991838;28;20195;-52
2022/05/07 05:01:27;;;;;;;29.40;24.57;;;;;;;13.42;100.00;95372.34;4992284;28;20276;-50
2022/05/07 05:03:52;;;;;;;30.27;25.10;;;;;;;13.50;100.00;95365.50;4991977;28;20277;-50
2022/05/07 05:06:18;;;;;;;29.73;25.40;;;;;;;13.55;100.00;95362.25;4992054;28;20186;-60
2022/05/07 05:08:43;;;;;;;27.30;23.80;;;;;;;13.64;100.00;95359.75;4992098;28;20200;-50
2022/05/07 05:11:08;;;;;;;26.23;23.37;;;;;;;13.67;100.00;95363.59;4991836;28;20186;-51
2022/05/07 05:13:34;;;;;;;29.73;24.67;;;;;;;13.65;100.00;95366.78;4991742;28;20186;-52
2022/05/07 05:15:59;;;;;;;29.77;25.93;;;;;;;13.82;100.00;95364.84;4991796;28;20198;-47
2022/05/07 05:18:24;;;;;;;26.93;21.70;;;;;;;13.63;100.00;95362.91;4991658;28;20282;-52
2022/05/07 05:20:50;;;;;;;25.97;21.90;;;;;;;13.74;100.00;95364.25;4991788;28;20191;-50
2022/05/07 05:23:15;;;;;;;22.47;19.97;;;;;;;13.73;100.00;95368.16;4991603;28;20213;-46
2022/05/07 05:25:43;;;;;;;22.87;19.83;;;;;;;13.68;100.00;95374.16;4991621;28;20200;-59
2022/05/07 05:28:11;;;;;;;24.83;21.27;;;;;;;13.77;100.00;95376.34;4991410;28;20196;-64
2022/05/07 05:30:37;;;;;;;21.40;19.10;;;;;;;13.81;100.00;95369.59;4991388;28;20195;-59
2022/05/07 05:33:02;;;;;;;24.23;20.47;;;;;;;13.82;100.00;95376.63;4991634;28;20204;-62
2022/05/07 05:35:28;;;;;;;22.47;18.27;;;;;;;13.73;100.00;95378.38;4991428;28;20250;-59
2022/05/07 05:37:54;;;;;;;20.97;18.53;;;;;;;13.46;100.00;95386.75;4991536;28;20262;-63
2022/05/07 05:40:20;;;;;;;20.03;17.33;;;;;;;13.45;100.00;95390.69;4991368;28;20255;-63
2022/05/07 05:42:45;;;;;;;20.70;17.50;;;;;;;13.38;100.00;95395.53;4991438;28;20211;-58
2022/05/07 05:45:11;;;;;;;19.70;17.60;;;;;;;13.39;100.00;95392.38;4991731;28;20210;-67
2022/05/07 05:47:36;;;;;;;19.60;17.53;;;;;;;13.36;100.00;95397.94;4991540;28;20206;-71
2022/05/07 05:50:01;;;;;;;23.13;19.23;;;;;;;13.40;100.00;95388.44;4991577;28;20245;-73
2022/05/07 05:52:27;;;;;;;20.83;18.67;;;;;;;13.42;100.00;95391.53;4991172;28;20191;-71
2022/05/07 05:54:53;;;;;;;23.60;19.80;;;;;;;13.56;100.00;95394.00;4991246;28;20207;-70
2022/05/07 05:57:18;;;;;;;20.20;17.47;;;;;;;13.32;100.00;95392.50;4992321;28;20201;-70
2022/05/07 05:59:43;;;;;;;19.23;17.20;;;;;;;13.21;100.00;95402.91;4994600;28;20198;-70
2022/05/07 06:02:09;;;;;;;18.57;16.57;;;;;;;13.15;100.00;95401.84;4994576;28;20206;-67
2022/05/07 06:04:34;;;;;;;19.90;17.80;;;;;;;13.17;100.00;95402.19;4994713;28;20278;-58
2022/05/07 06:07:00;;;;;;;19.57;16.97;;;;;;;13.11;100.00;95401.91;4994362;28;20317;-57
2022/05/07 06:09:28;;;;;;;20.67;18.03;;;;;;;13.28;100.00;95400.03;4994350;28;20194;-58
2022/05/07 06:11:56;;;;;;;21.37;17.00;;;;;;;13.30;100.00;95401.16;4994361;28;20197;-58
2022/05/07 06:14:21;;;;;;;18.63;16.63;;;;;;;13.33;100.00;95391.31;4994611;28;20182;-57
2022/05/07 06:16:46;;;;;;;22.13;18.50;;;;;;;13.43;100.00;95393.06;4994490;28;20286;-58
2022/05/07 06:19:11;;;;;;;20.70;18.40;;;;;;;13.48;100.00;95400.84;4994405;28;20199;-59
2022/05/07 06:21:37;;;;;;;21.20;17.27;;;;;;;13.38;100.00;95403.78;4994059;28;20257;-59
2022/05/07 06:29:30;;;;;;;19.43;17.33;;;;;;;13.37;100.00;95400.28;4995469;28;20197;-60
2022/05/07 06:31:56;;;;;;;19.90;17.67;;;;;;;13.25;100.00;95411.84;4994037;28;20194;-60
2022/05/07 06:34:23;;;;;;;19.43;17.33;;;;;;;13.24;100.00;95413.03;4993773;28;20186;-61
2022/05/07 06:36:49;;;;;;;19.50;17.37;;;;;;;13.08;100.00;95415.69;4994051;28;20185;-58
2022/05/07 06:39:16;;;;;;;20.47;18.27;;;;;;;13.17;100.00;95413.16;4993716;28;20201;-50
2022/05/07 06:41:41;;;;;;;21.90;19.03;;;;;;;13.25;100.00;95415.38;4995186;28;20202;-52
2022/05/07 06:44:07;;;;;;;22.30;19.63;;;;;;;13.21;100.00;95422.09;4994002;28;20260;-51
2022/05/07 06:46:32;;;;;;;20.90;18.60;;;;;;;13.24;100.00;95419.31;4993574;28;20199;-54
2022/05/07 06:48:57;;;;;;;20.17;17.97;;;;;;;13.36;100.00;95411.66;4993444;28;20201;-52
2022/05/07 06:51:24;;;;;;;22.13;19.07;;;;;;;13.29;100.00;95426.25;4993967;28;20194;-51
2022/05/07 06:53:49;;;;;;;22.37;19.37;;;;;;;13.32;100.00;95417.97;4993686;28;20290;-51
2022/05/07 06:56:15;;;;;;;22.27;19.43;;;;;;;13.32;100.00;95414.44;4993703;28;20257;-60
2022/05/07 06:58:41;;;;;;;24.17;21.27;;;;;;;13.29;100.00;95416.06;4993753;28;20194;-57
2022/05/07 07:01:07;;;;;;;21.87;19.47;;;;;;;13.37;100.00;95419.47;4993357;28;20263;-56
2022/05/07 07:03:33;;;;;;;23.50;20.43;;;;;;;13.39;100.00;95414.31;4993484;28;20210;-57
2022/05/07 07:06:00;;;;;;;24.53;20.30;;;;;;;13.38;100.00;95418.25;4993450;28;20396;-57
2022/05/07 07:08:26;;;;;;;22.67;20.27;;;;;;;13.37;100.00;95424.16;4993917;28;20186;-57
2022/05/07 07:10:51;;;;;;;23.03;19.90;;;;;;;13.31;100.00;95418.41;4994533;28;20205;-58
2022/05/07 07:13:16;;;;;;;22.90;20.40;;;;;;;13.38;100.00;95428.44;4993786;28;20245;-60
2022/05/07 07:15:42;;;;;;;23.70;20.63;;;;;;;13.33;100.00;95416.00;4993801;28;20229;-70
2022/05/07 07:18:09;;;;;;;25.13;22.03;;;;;;;13.47;100.00;95425.94;4993233;28;20215;-57
2022/05/07 07:20:39;;;;;;;20.90;18.70;;;;;;;13.43;100.00;95428.75;4994518;28;20245;-59
2022/05/07 07:23:05;;;;;;;20.33;18.20;;;;;;;13.38;100.00;95423.75;4992942;28;20215;-59
2022/05/07 07:25:30;;;;;;;23.93;20.60;;;;;;;13.50;100.00;95425.88;4994524;28;20196;-58
2022/05/07 07:27:56;;;;;;;21.50;18.87;;;;;;;13.50;100.00;95419.59;4993116;28;20184;-60
2022/05/07 07:30:21;;;;;;;23.23;20.77;;;;;;;13.43;100.00;95425.25;4993171;28;20199;-58
2022/05/07 07:32:46;;;;;;;21.13;18.87;;;;;;;13.33;100.00;95410.50;4993022;28;20226;-55
2022/05/07 07:35:11;;;;;;;20.53;18.30;;;;;;;13.26;100.00;95410.66;4992925;28;20285;-64
2022/05/07 07:37:37;;;;;;;21.27;18.97;;;;;;;13.21;100.00;95405.66;4993331;28;20281;-65
2022/05/07 07:40:04;;;;;;;24.07;20.07;;;;;;;13.16;100.00;95400.66;4993167;28;20189;-69
2022/05/07 07:42:30;;;;;;;22.97;20.27;;;;;;;13.29;100.00;95382.38;4993076;28;20209;-67
2022/05/07 07:50:24;;;;;;;19.70;17.63;;;;;;;13.22;100.00;95366.03;4994252;28;20275;-53
2022/05/07 07:53:09;;;;;;;21.37;18.80;;;;;;;13.18;100.00;95371.59;4992793;28;20285;-52
2022/05/07 07:55:36;;;;;;;20.83;18.17;;;;;;;13.14;100.00;95373.66;4992778;28;20181;-53
2022/05/07 07:58:06;;;;;;;19.70;17.60;;;;;;;13.08;100.00;95371.81;4992915;28;20194;-56
2022/05/07 08:00:33;;;;;;;20.03;17.93;;;;;;;13.17;100.00;95363.81;4992618;28;20191;-49
2022/05/07 08:03:09;;;;;;;18.80;16.80;;;;;;;12.98;100.00;95345.38;4992843;28;20301;-46
2022/05/07 08:05:36;;;;;;;20.43;18.13;;;;;;;13.09;100.00;95326.75;4993125;28;20197;-48
2022/05/07 08:13:37;;;;;;;18.63;16.73;;;;;;;14.39;100.00;95258.03;4993324;28;20293;-54
2022/05/07 08:16:03;;;;;;;20.27;18.13;;;;;;;14.31;100.00;95264.91;4992546;28;20201;-50
2022/05/07 08:18:29;;;;;;;20.23;18.13;;;;;;;14.46;100.00;95277.84;4992375;28;20216;-53
2022/05/07 08:20:56;;;;;;;18.97;16.97;;;;;;;14.30;100.00;95264.13;4991558;28;20233;-51
2022/05/07 08:23:21;;;;;;;23.17;18.23;;;;;;;14.40;100.00;95257.59;4992457;28;20207;-52
2022/05/07 08:25:48;;;;;;;20.83;18.73;;;;;;;14.60;100.00;95260.25;4992406;28;20200;-52
2022/05/07 08:28:13;;;;;;;22.60;18.80;;;;;;;14.49;100.00;95271.50;4992294;28;20233;-74
2022/05/07 08:30:39;;;;;;;19.17;16.97;;;;;;;14.04;100.00;95286.31;5008925;28;20227;-52
2022/05/07 08:33:05;;;;;;;20.00;17.30;;;;;;;14.25;100.00;95278.38;4992095;28;20191;-49
2022/05/07 08:35:31;;;;;;;18.73;16.73;;;;;;;14.27;100.00;95286.94;4992069;28;20205;-54
2022/05/07 08:37:56;;;;;;;18.33;16.43;;;;;;;14.37;100.00;95296.13;4992085;28;20253;-52
2022/05/07 08:40:22;;;;;;;17.97;16.07;;;;;;;14.47;100.00;95290.41;4991770;28;20194;-52
2022/05/07 08:42:47;;;;;;;19.97;17.37;;;;;;;14.48;100.00;95302.94;4991911;28;20214;-53
2022/05/07 08:45:13;;;;;;;18.73;16.73;;;;;;;14.64;100.00;95305.66;4992243;28;20206;-51
2022/05/07 08:47:40;;;;;;;18.00;16.10;;;;;;;14.42;100.00;95321.13;4993165;28;20191;-56
2022/05/07 08:50:10;;;;;;;18.77;16.83;;;;;;;14.47;100.00;95328.09;4992122;28;20260;-62
2022/05/07 08:52:39;;;;;;;18.60;16.63;;;;;;;14.17;100.00;95331.88;4992376;28;20184;-61
2022/05/07 08:55:06;;;;;;;19.10;16.97;;;;;;;14.15;100.00;95342.53;4992860;28;20191;-60
2022/05/07 08:57:31;;;;;;;18.63;16.63;;;;;;;14.20;100.00;95342.03;4992106;28;20214;-65
2022/05/07 08:59:56;;;;;;;18.30;16.40;;;;;;;14.26;100.00;95356.84;4991830;28;20198;-63
2022/05/07 09:02:22;;;;;;;18.60;16.63;;;;;;;14.18;100.00;95355.44;4991896;28;20245;-64
2022/05/07 09:04:57;;;;;;;17.67;15.77;;;;;;;14.13;100.00;95357.91;4992024;28;20192;-64
2022/05/07 09:07:23;;;;;;;18.60;16.67;;;;;;;14.14;100.00;95357.47;4991611;28;20194;-65
2022/05/07 09:09:50;;;;;;;18.47;16.60;;;;;;;13.97;100.00;95371.59;4992804;28;20179;-62
2022/05/07 09:12:29;;;;;;;19.87;17.17;;;;;;;14.39;100.00;95365.94;4992029;28;20189;-64
2022/05/07 09:15:05;;;;;;;17.37;15.57;;;;;;;14.44;100.00;95370.94;4991734;28;20199;-65
2022/05/07 09:17:32;;;;;;;20.47;17.60;;;;;;;14.55;100.00;95374.22;4991677;28;20229;-64
2022/05/07 09:19:57;;;;;;;17.13;15.37;;;;;;;14.23;100.00;95379.66;4991562;28;20199;-66
2022/05/07 09:22:23;;;;;;;17.60;15.80;;;;;;;14.38;100.00;95375.38;4991829;28;20241;-51
2022/05/07 09:24:56;;;;;;;16.87;15.07;;;;;;;14.22;100.00;95393.81;4991812;28;20276;-54
2022/05/07 09:27:22;;;;;;;15.63;14.03;;;;;;;14.08;100.00;95389.38;4991524;28;20183;-57
2022/05/07 09:30:03;;;;;;;15.47;13.87;;;;;;;14.23;100.00;95390.66;4991574;28;20195;-55
2022/05/07 09:32:36;;;;;;;15.43;13.73;;;;;;;14.03;100.00;95392.66;4995390;28;20211;-55
2022/05/07 09:38:02;;;;;;;15.57;13.97;;;;;;;14.06;100.00;95400.00;4996131;28;20202;-59
2022/05/07 09:40:29;;;;;;;16.10;14.40;;;;;;;14.21;100.00;95401.28;4994470;28;20188;-66
2022/05/07 09:42:57;;;;;;;17.50;14.70;;;;;;;14.11;100.00;95401.50;4994959;28;20218;-56
2022/05/07 09:45:25;;;;;;;15.13;13.53;;;;;;;14.13;100.00;95397.13;4994756;28;20187;-55
2022/05/07 09:47:51;;;;;;;15.87;14.27;;;;;;;13.99;100.00;95411.13;4994715;28;20201;-57
2022/05/07 09:50:20;;;;;;;16.50;14.80;;;;;;;14.34;100.00;95396.69;4994750;28;20186;-55
2022/05/07 09:58:16;;;;;;;16.80;14.97;;;;;;;14.45;100.00;95391.72;4995865;28;20253;-63
2022/05/07 10:01:09;;;;;;;17.23;15.43;;;;;;;14.64;100.00;95382.63;4994495;28;20214;-70
2022/05/07 10:03:47;;;;;;;15.80;14.20;;;;;;;14.66;100.00;95391.22;4994774;28;20214;-71
2022/05/07 10:06:35;;;;;;;15.07;13.50;;;;;;;14.52;100.00;95397.03;4994457;28;20214;-65
2022/05/07 10:09:24;;;;;;;15.40;13.73;;;;;;;14.21;100.00;95404.03;4994602;28;20198;-72
2022/05/07 10:11:55;;;;;;;16.13;14.37;;;;;;;14.09;100.00;95407.41;4994418;28;20249;-69
2022/05/07 10:14:26;;;;;;;16.50;14.80;;;;;;;14.16;100.00;95407.25;4994162;28;20190;-69
2022/05/07 10:17:11;;;;;;;16.00;14.23;;;;;;;14.23;100.00;95400.84;4995232;28;20221;-57
2022/05/07 10:19:44;;;;;;;16.90;15.10;;;;;;;14.15;100.00;95396.69;4994550;28;20189;-61
2022/05/07 10:22:24;;;;;;;17.73;15.20;;;;;;;14.27;100.00;95407.06;4993952;28;20211;-59
2022/05/07 10:25:07;;;;;;;17.77;15.87;;;;;;;14.38;100.00;95391.88;4994025;28;20191;-57
2022/05/07 10:27:43;;;;;;;19.67;17.17;;;;;;;14.27;100.00;95396.84;4994166;28;20194;-59
2022/05/07 10:30:17;;;;;;;19.37;17.10;;;;;;;14.48;100.00;95390.09;4994491;28;20194;-59
2022/05/07 10:32:53;;;;;;;19.73;17.63;;;;;;;14.78;100.00;95382.28;4994240;28;20234;-59
2022/05/07 10:35:47;;;;;;;19.97;17.40;;;;;;;14.63;100.00;95392.06;4993819;28;20191;-67
2022/05/07 10:38:24;;;;;;;18.60;16.63;;;;;;;14.89;100.00;95382.78;4994069;28;20197;-54
2022/05/07 10:40:56;;;;;;;19.00;17.00;;;;;;;15.25;100.00;95388.94;4994135;28;20190;-69
2022/05/07 10:43:42;;;;;;;18.47;16.50;;;;;;;15.19;100.00;95379.66;4992869;28;20215;-70
2022/05/07 10:46:19;;;;;;;19.13;16.67;;;;;;;15.56;100.00;95384.56;4993622;28;20195;-68
2022/05/07 10:48:53;;;;;;;18.97;17.00;;;;;;;15.51;100.00;95390.63;4993843;28;20207;-67
2022/05/07 10:51:30;;;;;;;20.17;16.93;;;;;;;15.54;100.00;95384.25;4995005;28;20191;-70
2022/05/07 10:53:59;;;;;;;17.03;15.30;;;;;;;14.91;100.00;95407.91;4993503;28;20227;-58
2022/05/07 10:56:25;;;;;;;17.50;15.70;;;;;;;14.84;100.00;95413.56;4993995;28;20278;-54
2022/05/07 10:58:51;;;;;;;19.03;16.93;;;;;;;14.74;100.00;95414.59;4993890;28;20222;-62
2022/05/07 11:01:18;;;;;;;18.43;16.53;;;;;;;14.60;100.00;95419.66;4993550;28;20191;-63
2022/05/07 11:03:45;;;;;;;19.13;17.13;;;;;;;14.81;100.00;95416.38;4993138;28;20248;-60
2022/05/07 11:06:11;;;;;;;18.23;16.23;;;;;;;14.61;100.00;95421.94;4993449;28;20196;-60
2022/05/07 11:08:50;;;;;;;19.10;16.87;;;;;;;14.55;100.00;95418.19;4993316;28;20198;-58
2022/05/07 11:11:16;;;;;;;17.87;16.07;;;;;;;14.73;100.00;95424.03;4993215;28;20199;-59
2022/05/07 11:13:45;;;;;;;18.60;16.70;;;;;;;14.75;100.00;95416.13;4993448;28;20187;-57
2022/05/07 11:16:11;;;;;;;17.00;15.07;;;;;;;14.50;100.00;95415.94;4992969;28;20206;-59
2022/05/07 11:18:36;;;;;;;17.30;15.53;;;;;;;14.45;100.00;95424.69;4992854;28;20196;-58
2022/05/07 11:21:03;;;;;;;19.13;16.37;;;;;;;14.58;100.00;95425.56;4993273;28;20195;-58
2022/05/07 11:23:30;;;;;;;16.73;15.03;;;;;;;14.49;100.00;95422.63;4992838;28;20619;-60
2022/05/07 11:25:55;;;;;;;18.53;16.40;;;;;;;14.68;100.00;95410.03;4993301;28;20195;-60
2022/05/07 11:28:21;;;;;;;17.33;15.53;;;;;;;14.59;100.00;95432.63;4993194;28;20199;-59
2022/05/07 11:30:53;;;;;;;18.50;16.07;;;;;;;14.80;100.00;95418.38;4993406;28;20195;-67
2022/05/07 11:33:25;;;;;;;16.90;15.07;;;;;;;14.54;100.00;95430.38;4993160;28;20240;-55
2022/05/07 11:36:08;;;;;;;16.13;14.53;;;;;;;14.70;100.00;95422.16;4992942;28;20271;-56
2022/05/07 11:38:37;;;;;;;14.70;13.30;;;;;;;15.02;100.00;95419.41;4993082;28;20188;-57
2022/05/07 11:41:09;;;;;;;15.93;14.30;;;;;;;15.20;100.00;95419.72;4993052;28;20187;-58
2022/05/07 11:46:19;;;;;;;14.70;13.20;;;;;;;15.34;100.00;95435.84;4994225;28;20246;-55